sensor_id;sensor_type;location;lat;lon;timestamp;P1;durP1;ratioP1;P2;durP2;ratioP2
2784;SDS011;57944;48.722;9.316;2023-01-31T00:00:23;10.33;;;5.47;;
2784;SDS011;57944;48.722;9.316;2023-01-31T00:02:53;11.40;;;5.50;;
2784;SDS011;57944;48.722;9.316;2023-01-31T00:05:24;11.13;;;5.90;;
2784;SDS011;57944;48.722;9.316;2023-01-31T00:07:57;14.93;;;5.17;;
2784;SDS011;57944;48.722;9.316;2023-01-31T00:10:27;9.87;;;6.30;;
2784;SDS011;57944;48.722;9.316;2023-01-31T00:12:58;9.20;;;5.90;;
2784;SDS011;57944;48.722;9.316;2023-01-31T00:15:28;10.07;;;5.53;;
2784;SDS011;57944;48.722;9.316;2023-01-31T00:17:58;9.67;;;6.37;;
2784;SDS011;57944;48.722;9.316;2023-01-31T00:20:28;8.10;;;5.23;;
2784;SDS011;57944;48.722;9.316;2023-01-31T00:23:01;11.40;;;5.60;;
2784;SDS011;57944;48.722;9.316;2023-01-31T00:25:32;10.17;;;5.00;;
2784;SDS011;57944;48.722;9.316;2023-01-31T00:28:03;10.43;;;5.63;;
2784;SDS011;57944;48.722;9.316;2023-01-31T00:30:33;9.33;;;5.57;;
2784;SDS011;57944;48.722;9.316;2023-01-31T00:33:04;9.00;;;4.27;;
2784;SDS011;57944;48.722;9.316;2023-01-31T00:35:36;11.20;;;5.63;;
2784;SDS011;57944;48.722;9.316;2023-01-31T00:38:13;14.60;;;5.20;;
2784;SDS011;57944;48.722;9.316;2023-01-31T00:40:50;11.13;;;4.63;;
2784;SDS011;57944;48.722;9.316;2023-01-31T00:43:20;8.93;;;4.40;;
2784;SDS011;57944;48.722;9.316;2023-01-31T00:45:51;7.40;;;5.20;;
2784;SDS011;57944;48.722;9.316;2023-01-31T00:48:22;10.47;;;5.10;;
2784;SDS011;57944;48.722;9.316;2023-01-31T00:50:53;11.00;;;5.60;;
2784;SDS011;57944;48.722;9.316;2023-01-31T00:53:26;11.77;;;5.93;;
2784;SDS011;57944;48.722;9.316;2023-01-31T00:56:00;10.53;;;5.63;;
2784;SDS011;57944;48.722;9.316;2023-01-31T00:58:34;9.53;;;6.00;;
2784;SDS011;57944;48.722;9.316;2023-01-31T01:01:06;11.77;;;5.53;;
2784;SDS011;57944;48.722;9.316;2023-01-31T01:03:38;14.13;;;6.27;;
2784;SDS011;57944;48.722;9.316;2023-01-31T01:06:10;13.30;;;5.03;;
2784;SDS011;57944;48.722;9.316;2023-01-31T01:08:45;13.60;;;6.33;;
2784;SDS011;57944;48.722;9.316;2023-01-31T01:11:20;10.17;;;5.00;;
2784;SDS011;57944;48.722;9.316;2023-01-31T01:13:53;9.70;;;5.23;;
2784;SDS011;57944;48.722;9.316;2023-01-31T01:16:25;10.63;;;4.70;;
2784;SDS011;57944;48.722;9.316;2023-01-31T01:19:03;12.07;;;3.90;;
2784;SDS011;57944;48.722;9.316;2023-01-31T01:21:35;12.13;;;6.07;;
2784;SDS011;57944;48.722;9.316;2023-01-31T01:24:11;7.90;;;5.17;;
2784;SDS011;57944;48.722;9.316;2023-01-31T01:26:45;18.43;;;6.90;;
2784;SDS011;57944;48.722;9.316;2023-01-31T01:29:17;11.87;;;4.80;;
2784;SDS011;57944;48.722;9.316;2023-01-31T01:31:47;7.80;;;5.13;;
2784;SDS011;57944;48.722;9.316;2023-01-31T01:34:18;11.20;;;5.70;;
2784;SDS011;57944;48.722;9.316;2023-01-31T01:36:48;15.60;;;5.87;;
2784;SDS011;57944;48.722;9.316;2023-01-31T01:39:21;13.13;;;4.40;;
2784;SDS011;57944;48.722;9.316;2023-01-31T01:41:56;11.43;;;6.00;;
2784;SDS011;57944;48.722;9.316;2023-01-31T01:47:24;9.30;;;4.73;;
2784;SDS011;57944;48.722;9.316;2023-01-31T01:50:06;11.33;;;4.73;;
2784;SDS011;57944;48.722;9.316;2023-01-31T01:52:44;12.03;;;4.80;;
2784;SDS011;57944;48.722;9.316;2023-01-31T01:55:23;6.90;;;4.80;;
2784;SDS011;57944;48.722;9.316;2023-01-31T01:58:08;19.67;;;5.50;;
2784;SDS011;57944;48.722;9.316;2023-01-31T02:00:52;15.27;;;4.63;;
2784;SDS011;57944;48.722;9.316;2023-01-31T02:03:23;17.27;;;5.67;;
2784;SDS011;57944;48.722;9.316;2023-01-31T02:05:56;14.13;;;5.60;;
2784;SDS011;57944;48.722;9.316;2023-01-31T02:08:33;12.37;;;5.17;;
2784;SDS011;57944;48.722;9.316;2023-01-31T02:11:13;10.13;;;5.07;;
2784;SDS011;57944;48.722;9.316;2023-01-31T02:13:51;8.50;;;4.60;;
2784;SDS011;57944;48.722;9.316;2023-01-31T02:16:32;8.33;;;4.80;;
2784;SDS011;57944;48.722;9.316;2023-01-31T02:19:03;11.00;;;5.67;;
2784;SDS011;57944;48.722;9.316;2023-01-31T02:21:52;7.20;;;4.30;;
2784;SDS011;57944;48.722;9.316;2023-01-31T02:24:48;16.70;;;5.60;;
2784;SDS011;57944;48.722;9.316;2023-01-31T02:28:15;11.93;;;4.63;;
2784;SDS011;57944;48.722;9.316;2023-01-31T02:31:24;11.60;;;5.13;;
2784;SDS011;57944;48.722;9.316;2023-01-31T02:34:31;7.47;;;3.67;;
2784;SDS011;57944;48.722;9.316;2023-01-31T02:37:13;5.63;;;3.90;;
2784;SDS011;57944;48.722;9.316;2023-01-31T02:39:57;12.27;;;4.70;;
2784;SDS011;57944;48.722;9.316;2023-01-31T02:42:43;16.40;;;7.17;;
2784;SDS011;57944;48.722;9.316;2023-01-31T02:45:28;11.93;;;6.00;;
2784;SDS011;57944;48.722;9.316;2023-01-31T02:48:07;9.27;;;5.40;;
2784;SDS011;57944;48.722;9.316;2023-01-31T02:50:56;6.10;;;4.00;;
2784;SDS011;57944;48.722;9.316;2023-01-31T02:53:34;10.40;;;5.50;;
2784;SDS011;57944;48.722;9.316;2023-01-31T02:56:13;11.97;;;4.83;;
2784;SDS011;57944;48.722;9.316;2023-01-31T02:58:51;27.43;;;7.03;;
2784;SDS011;57944;48.722;9.316;2023-01-31T03:01:29;12.90;;;4.97;;
2784;SDS011;57944;48.722;9.316;2023-01-31T03:04:04;12.80;;;6.00;;
2784;SDS011;57944;48.722;9.316;2023-01-31T03:07:00;8.97;;;4.83;;
2784;SDS011;57944;48.722;9.316;2023-01-31T03:09:39;12.27;;;6.63;;
2784;SDS011;57944;48.722;9.316;2023-01-31T03:12:28;9.80;;;5.10;;
2784;SDS011;57944;48.722;9.316;2023-01-31T03:15:19;8.57;;;4.73;;
2784;SDS011;57944;48.722;9.316;2023-01-31T03:18:18;12.73;;;6.57;;
2784;SDS011;57944;48.722;9.316;2023-01-31T03:20:54;15.40;;;6.97;;
2784;SDS011;57944;48.722;9.316;2023-01-31T03:23:38;10.37;;;5.37;;
2784;SDS011;57944;48.722;9.316;2023-01-31T03:26:14;10.53;;;5.77;;
2784;SDS011;57944;48.722;9.316;2023-01-31T03:28:48;10.83;;;5.37;;
2784;SDS011;57944;48.722;9.316;2023-01-31T03:31:25;10.60;;;6.23;;
2784;SDS011;57944;48.722;9.316;2023-01-31T03:34:03;11.63;;;4.97;;
2784;SDS011;57944;48.722;9.316;2023-01-31T03:36:38;11.80;;;4.90;;
2784;SDS011;57944;48.722;9.316;2023-01-31T03:39:35;10.33;;;4.47;;
2784;SDS011;57944;48.722;9.316;2023-01-31T03:42:13;13.73;;;6.27;;
2784;SDS011;57944;48.722;9.316;2023-01-31T03:44:53;15.73;;;6.67;;
2784;SDS011;57944;48.722;9.316;2023-01-31T03:47:32;12.27;;;5.70;;
2784;SDS011;57944;48.722;9.316;2023-01-31T03:50:08;12.70;;;4.90;;
2784;SDS011;57944;48.722;9.316;2023-01-31T03:52:48;9.17;;;5.40;;
2784;SDS011;57944;48.722;9.316;2023-01-31T03:55:27;8.40;;;4.70;;
2784;SDS011;57944;48.722;9.316;2023-01-31T03:58:04;9.27;;;5.13;;
2784;SDS011;57944;48.722;9.316;2023-01-31T04:00:40;8.10;;;5.17;;
2784;SDS011;57944;48.722;9.316;2023-01-31T04:03:14;18.47;;;5.37;;
2784;SDS011;57944;48.722;9.316;2023-01-31T04:05:53;5.90;;;4.30;;
2784;SDS011;57944;48.722;9.316;2023-01-31T04:08:24;10.03;;;4.97;;
2784;SDS011;57944;48.722;9.316;2023-01-31T04:11:02;11.63;;;4.30;;
2784;SDS011;57944;48.722;9.316;2023-01-31T04:13:39;13.40;;;5.00;;
2784;SDS011;57944;48.722;9.316;2023-01-31T04:16:11;12.63;;;5.80;;
2784;SDS011;57944;48.722;9.316;2023-01-31T04:18:42;8.80;;;4.90;;
2784;SDS011;57944;48.722;9.316;2023-01-31T04:21:12;6.97;;;5.27;;
2784;SDS011;57944;48.722;9.316;2023-01-31T04:23:43;9.80;;;5.10;;
2784;SDS011;57944;48.722;9.316;2023-01-31T04:26:16;18.43;;;5.70;;
2784;SDS011;57944;48.722;9.316;2023-01-31T04:28:47;10.00;;;5.80;;
2784;SDS011;57944;48.722;9.316;2023-01-31T04:31:17;10.53;;;5.10;;
2784;SDS011;57944;48.722;9.316;2023-01-31T04:33:48;12.07;;;6.67;;
2784;SDS011;57944;48.722;9.316;2023-01-31T04:36:18;8.13;;;5.47;;
2784;SDS011;57944;48.722;9.316;2023-01-31T04:38:48;9.93;;;5.80;;
2784;SDS011;57944;48.722;9.316;2023-01-31T04:41:21;9.07;;;5.80;;
2784;SDS011;57944;48.722;9.316;2023-01-31T04:43:52;11.60;;;6.03;;
2784;SDS011;57944;48.722;9.316;2023-01-31T04:46:22;16.40;;;6.00;;
2784;SDS011;57944;48.722;9.316;2023-01-31T04:48:52;13.63;;;4.87;;
2784;SDS011;57944;48.722;9.316;2023-01-31T04:51:22;16.50;;;6.23;;
2784;SDS011;57944;48.722;9.316;2023-01-31T04:53:52;8.63;;;4.77;;
2784;SDS011;57944;48.722;9.316;2023-01-31T04:56:25;9.40;;;5.17;;
2784;SDS011;57944;48.722;9.316;2023-01-31T04:58:59;14.10;;;6.47;;
2784;SDS011;57944;48.722;9.316;2023-01-31T05:01:30;9.03;;;6.20;;
2784;SDS011;57944;48.722;9.316;2023-01-31T05:04:00;14.33;;;6.10;;
2784;SDS011;57944;48.722;9.316;2023-01-31T05:06:30;12.17;;;5.83;;
2784;SDS011;57944;48.722;9.316;2023-01-31T05:09:00;11.40;;;6.67;;
2784;SDS011;57944;48.722;9.316;2023-01-31T05:11:33;11.40;;;5.20;;
2784;SDS011;57944;48.722;9.316;2023-01-31T05:14:04;12.10;;;6.60;;
2784;SDS011;57944;48.722;9.316;2023-01-31T05:16:34;10.70;;;5.83;;
2784;SDS011;57944;48.722;9.316;2023-01-31T05:19:05;13.23;;;5.93;;
2784;SDS011;57944;48.722;9.316;2023-01-31T05:21:35;7.17;;;4.60;;
2784;SDS011;57944;48.722;9.316;2023-01-31T05:24:20;11.77;;;6.23;;
2784;SDS011;57944;48.722;9.316;2023-01-31T05:26:54;26.50;;;6.90;;
2784;SDS011;57944;48.722;9.316;2023-01-31T05:29:27;22.37;;;7.13;;
2784;SDS011;57944;48.722;9.316;2023-01-31T05:32:00;15.90;;;7.00;;
2784;SDS011;57944;48.722;9.316;2023-01-31T05:34:31;12.00;;;6.33;;
2784;SDS011;57944;48.722;9.316;2023-01-31T05:37:02;12.60;;;4.90;;
2784;SDS011;57944;48.722;9.316;2023-01-31T05:39:33;14.93;;;7.20;;
2784;SDS011;57944;48.722;9.316;2023-01-31T05:42:06;11.07;;;6.20;;
2784;SDS011;57944;48.722;9.316;2023-01-31T05:44:36;36.37;;;11.17;;
2784;SDS011;57944;48.722;9.316;2023-01-31T05:47:06;8.00;;;5.30;;
2784;SDS011;57944;48.722;9.316;2023-01-31T05:49:36;13.93;;;5.43;;
2784;SDS011;57944;48.722;9.316;2023-01-31T05:52:07;16.73;;;5.17;;
2784;SDS011;57944;48.722;9.316;2023-01-31T05:54:37;10.43;;;6.83;;
2784;SDS011;57944;48.722;9.316;2023-01-31T05:57:10;11.63;;;6.07;;
2784;SDS011;57944;48.722;9.316;2023-01-31T05:59:40;19.13;;;8.17;;
2784;SDS011;57944;48.722;9.316;2023-01-31T06:02:11;18.07;;;12.47;;
2784;SDS011;57944;48.722;9.316;2023-01-31T06:04:41;13.70;;;8.37;;
2784;SDS011;57944;48.722;9.316;2023-01-31T06:07:11;10.80;;;6.60;;
2784;SDS011;57944;48.722;9.316;2023-01-31T06:09:41;15.10;;;5.33;;
2784;SDS011;57944;48.722;9.316;2023-01-31T06:12:14;10.80;;;5.90;;
2784;SDS011;57944;48.722;9.316;2023-01-31T06:14:44;18.63;;;6.60;;
2784;SDS011;57944;48.722;9.316;2023-01-31T06:17:16;15.03;;;6.43;;
2784;SDS011;57944;48.722;9.316;2023-01-31T06:19:46;23.93;;;7.97;;
2784;SDS011;57944;48.722;9.316;2023-01-31T06:22:17;13.57;;;7.57;;
2784;SDS011;57944;48.722;9.316;2023-01-31T06:24:47;10.73;;;7.23;;
2784;SDS011;57944;48.722;9.316;2023-01-31T06:27:20;13.70;;;6.10;;
2784;SDS011;57944;48.722;9.316;2023-01-31T06:29:51;12.83;;;7.33;;
2784;SDS011;57944;48.722;9.316;2023-01-31T06:32:22;13.83;;;6.00;;
2784;SDS011;57944;48.722;9.316;2023-01-31T06:34:52;12.33;;;5.87;;
2784;SDS011;57944;48.722;9.316;2023-01-31T06:37:22;11.50;;;6.30;;
2784;SDS011;57944;48.722;9.316;2023-01-31T06:39:52;20.20;;;7.23;;
2784;SDS011;57944;48.722;9.316;2023-01-31T06:42:26;19.40;;;6.87;;
2784;SDS011;57944;48.722;9.316;2023-01-31T06:44:56;18.23;;;6.83;;
2784;SDS011;57944;48.722;9.316;2023-01-31T06:47:27;16.70;;;7.20;;
2784;SDS011;57944;48.722;9.316;2023-01-31T06:49:57;19.77;;;7.43;;
2784;SDS011;57944;48.722;9.316;2023-01-31T06:52:27;16.77;;;7.20;;
2784;SDS011;57944;48.722;9.316;2023-01-31T06:54:57;11.23;;;5.50;;
2784;SDS011;57944;48.722;9.316;2023-01-31T06:57:30;10.13;;;5.70;;
2784;SDS011;57944;48.722;9.316;2023-01-31T07:00:01;11.83;;;7.10;;
2784;SDS011;57944;48.722;9.316;2023-01-31T07:02:33;17.73;;;6.97;;
2784;SDS011;57944;48.722;9.316;2023-01-31T07:05:03;22.80;;;8.20;;
2784;SDS011;57944;48.722;9.316;2023-01-31T07:07:35;16.70;;;7.13;;
2784;SDS011;57944;48.722;9.316;2023-01-31T07:10:06;19.13;;;6.13;;
2784;SDS011;57944;48.722;9.316;2023-01-31T07:12:41;16.63;;;6.43;;
2784;SDS011;57944;48.722;9.316;2023-01-31T07:15:11;14.90;;;8.70;;
2784;SDS011;57944;48.722;9.316;2023-01-31T07:17:41;15.63;;;6.90;;
2784;SDS011;57944;48.722;9.316;2023-01-31T07:20:12;12.90;;;6.97;;
2784;SDS011;57944;48.722;9.316;2023-01-31T07:22:42;18.70;;;8.67;;
2784;SDS011;57944;48.722;9.316;2023-01-31T07:25:13;24.73;;;8.30;;
2784;SDS011;57944;48.722;9.316;2023-01-31T07:27:46;17.60;;;7.33;;
2784;SDS011;57944;48.722;9.316;2023-01-31T07:30:17;17.37;;;8.70;;
2784;SDS011;57944;48.722;9.316;2023-01-31T07:32:48;12.60;;;6.27;;
2784;SDS011;57944;48.722;9.316;2023-01-31T07:35:18;11.40;;;6.80;;
2784;SDS011;57944;48.722;9.316;2023-01-31T07:37:50;15.90;;;8.20;;
2784;SDS011;57944;48.722;9.316;2023-01-31T07:40:21;16.20;;;7.93;;
2784;SDS011;57944;48.722;9.316;2023-01-31T07:42:54;15.43;;;7.90;;
2784;SDS011;57944;48.722;9.316;2023-01-31T07:45:27;18.90;;;8.57;;
2784;SDS011;57944;48.722;9.316;2023-01-31T07:47:57;17.93;;;8.10;;
2784;SDS011;57944;48.722;9.316;2023-01-31T07:50:27;20.60;;;8.20;;
2784;SDS011;57944;48.722;9.316;2023-01-31T07:52:58;14.70;;;8.07;;
2784;SDS011;57944;48.722;9.316;2023-01-31T07:55:28;13.13;;;8.33;;
2784;SDS011;57944;48.722;9.316;2023-01-31T07:58:01;20.43;;;9.60;;
2784;SDS011;57944;48.722;9.316;2023-01-31T08:00:31;16.80;;;6.10;;
2784;SDS011;57944;48.722;9.316;2023-01-31T08:03:20;19.80;;;9.10;;
2784;SDS011;57944;48.722;9.316;2023-01-31T08:06:05;17.20;;;8.20;;
2784;SDS011;57944;48.722;9.316;2023-01-31T08:08:39;13.57;;;6.50;;
2784;SDS011;57944;48.722;9.316;2023-01-31T08:11:12;10.80;;;6.60;;
2784;SDS011;57944;48.722;9.316;2023-01-31T08:13:45;17.03;;;7.60;;
2784;SDS011;57944;48.722;9.316;2023-01-31T08:16:16;19.83;;;7.90;;
2784;SDS011;57944;48.722;9.316;2023-01-31T08:18:46;18.30;;;8.10;;
2784;SDS011;57944;48.722;9.316;2023-01-31T08:21:17;14.43;;;7.37;;
2784;SDS011;57944;48.722;9.316;2023-01-31T08:23:48;10.33;;;5.83;;
2784;SDS011;57944;48.722;9.316;2023-01-31T08:26:19;13.50;;;6.97;;
2784;SDS011;57944;48.722;9.316;2023-01-31T08:28:54;11.80;;;6.83;;
2784;SDS011;57944;48.722;9.316;2023-01-31T08:31:26;14.77;;;6.47;;
2784;SDS011;57944;48.722;9.316;2023-01-31T08:33:57;12.27;;;6.20;;
2784;SDS011;57944;48.722;9.316;2023-01-31T08:36:29;16.67;;;6.60;;
2784;SDS011;57944;48.722;9.316;2023-01-31T08:39:01;10.00;;;7.03;;
2784;SDS011;57944;48.722;9.316;2023-01-31T08:41:33;10.47;;;6.73;;
2784;SDS011;57944;48.722;9.316;2023-01-31T08:44:07;14.53;;;6.03;;
2784;SDS011;57944;48.722;9.316;2023-01-31T08:46:37;13.03;;;6.07;;
2784;SDS011;57944;48.722;9.316;2023-01-31T08:49:08;13.93;;;5.30;;
2784;SDS011;57944;48.722;9.316;2023-01-31T08:51:38;10.00;;;5.83;;
2784;SDS011;57944;48.722;9.316;2023-01-31T08:54:08;15.93;;;6.10;;
2784;SDS011;57944;48.722;9.316;2023-01-31T08:56:39;17.27;;;6.50;;
2784;SDS011;57944;48.722;9.316;2023-01-31T08:59:12;10.97;;;4.47;;
2784;SDS011;57944;48.722;9.316;2023-01-31T09:01:42;13.20;;;6.23;;
2784;SDS011;57944;48.722;9.316;2023-01-31T09:04:13;9.10;;;4.30;;
2784;SDS011;57944;48.722;9.316;2023-01-31T09:06:43;9.50;;;4.20;;
2784;SDS011;57944;48.722;9.316;2023-01-31T09:09:15;8.23;;;5.47;;
2784;SDS011;57944;48.722;9.316;2023-01-31T09:11:45;17.10;;;5.23;;
2784;SDS011;57944;48.722;9.316;2023-01-31T09:14:18;9.20;;;5.13;;
2784;SDS011;57944;48.722;9.316;2023-01-31T09:16:48;14.57;;;5.87;;
2784;SDS011;57944;48.722;9.316;2023-01-31T09:19:18;13.70;;;5.13;;
2784;SDS011;57944;48.722;9.316;2023-01-31T09:21:49;14.30;;;5.63;;
2784;SDS011;57944;48.722;9.316;2023-01-31T09:24:19;10.80;;;4.77;;
2784;SDS011;57944;48.722;9.316;2023-01-31T09:26:49;11.93;;;5.00;;
2784;SDS011;57944;48.722;9.316;2023-01-31T09:29:23;13.20;;;4.03;;
2784;SDS011;57944;48.722;9.316;2023-01-31T09:31:54;9.33;;;4.40;;
2784;SDS011;57944;48.722;9.316;2023-01-31T09:34:25;16.10;;;6.20;;
2784;SDS011;57944;48.722;9.316;2023-01-31T09:36:55;9.27;;;4.03;;
2784;SDS011;57944;48.722;9.316;2023-01-31T09:39:25;6.53;;;3.53;;
2784;SDS011;57944;48.722;9.316;2023-01-31T09:41:56;16.17;;;4.97;;
2784;SDS011;57944;48.722;9.316;2023-01-31T09:44:40;3.73;;;2.80;;
2784;SDS011;57944;48.722;9.316;2023-01-31T09:47:15;8.13;;;4.40;;
2784;SDS011;57944;48.722;9.316;2023-01-31T09:49:57;8.60;;;4.30;;
2784;SDS011;57944;48.722;9.316;2023-01-31T09:52:31;8.70;;;4.80;;
2784;SDS011;57944;48.722;9.316;2023-01-31T09:55:04;6.37;;;3.80;;
2784;SDS011;57944;48.722;9.316;2023-01-31T09:57:45;10.10;;;3.60;;
2784;SDS011;57944;48.722;9.316;2023-01-31T10:00:29;9.70;;;5.20;;
2784;SDS011;57944;48.722;9.316;2023-01-31T10:03:16;7.10;;;4.30;;
2784;SDS011;57944;48.722;9.316;2023-01-31T10:06:14;9.30;;;4.80;;
2784;SDS011;57944;48.722;9.316;2023-01-31T10:08:52;11.43;;;3.53;;
2784;SDS011;57944;48.722;9.316;2023-01-31T10:11:37;11.83;;;6.17;;
2784;SDS011;57944;48.722;9.316;2023-01-31T10:14:17;9.17;;;4.33;;
2784;SDS011;57944;48.722;9.316;2023-01-31T10:17:02;6.90;;;3.80;;
2784;SDS011;57944;48.722;9.316;2023-01-31T10:19:42;9.30;;;4.37;;
2784;SDS011;57944;48.722;9.316;2023-01-31T10:22:20;12.40;;;4.83;;
2784;SDS011;57944;48.722;9.316;2023-01-31T10:25:02;7.30;;;3.73;;
2784;SDS011;57944;48.722;9.316;2023-01-31T10:27:54;10.00;;;3.93;;
2784;SDS011;57944;48.722;9.316;2023-01-31T10:30:39;12.20;;;3.87;;
2784;SDS011;57944;48.722;9.316;2023-01-31T10:33:21;15.23;;;5.00;;
2784;SDS011;57944;48.722;9.316;2023-01-31T10:36:01;14.27;;;4.67;;
2784;SDS011;57944;48.722;9.316;2023-01-31T10:38:41;6.03;;;3.30;;
2784;SDS011;57944;48.722;9.316;2023-01-31T10:41:30;12.53;;;3.80;;
2784;SDS011;57944;48.722;9.316;2023-01-31T10:44:16;7.03;;;3.27;;
2784;SDS011;57944;48.722;9.316;2023-01-31T10:46:55;6.87;;;3.07;;
2784;SDS011;57944;48.722;9.316;2023-01-31T10:49:31;11.40;;;3.47;;
2784;SDS011;57944;48.722;9.316;2023-01-31T10:52:05;9.83;;;4.50;;
2784;SDS011;57944;48.722;9.316;2023-01-31T10:54:58;12.53;;;5.33;;
2784;SDS011;57944;48.722;9.316;2023-01-31T10:57:53;7.60;;;3.27;;
2784;SDS011;57944;48.722;9.316;2023-01-31T11:00:27;9.77;;;3.13;;
2784;SDS011;57944;48.722;9.316;2023-01-31T11:03:01;7.57;;;3.30;;
2784;SDS011;57944;48.722;9.316;2023-01-31T11:05:34;8.23;;;3.20;;
2784;SDS011;57944;48.722;9.316;2023-01-31T11:08:19;7.50;;;3.37;;
2784;SDS011;57944;48.722;9.316;2023-01-31T11:11:04;9.93;;;3.20;;
2784;SDS011;57944;48.722;9.316;2023-01-31T11:13:38;9.70;;;4.30;;
2784;SDS011;57944;48.722;9.316;2023-01-31T11:16:09;8.40;;;3.93;;
2784;SDS011;57944;48.722;9.316;2023-01-31T11:18:42;5.70;;;3.67;;
2784;SDS011;57944;48.722;9.316;2023-01-31T11:21:21;20.10;;;3.53;;
2784;SDS011;57944;48.722;9.316;2023-01-31T11:23:55;8.53;;;3.23;;
2784;SDS011;57944;48.722;9.316;2023-01-31T11:26:32;9.80;;;3.67;;
2784;SDS011;57944;48.722;9.316;2023-01-31T11:29:06;12.70;;;5.27;;
2784;SDS011;57944;48.722;9.316;2023-01-31T11:31:46;7.90;;;3.30;;
2784;SDS011;57944;48.722;9.316;2023-01-31T11:34:18;7.27;;;3.10;;
2784;SDS011;57944;48.722;9.316;2023-01-31T11:36:54;6.97;;;2.90;;
2784;SDS011;57944;48.722;9.316;2023-01-31T11:39:35;10.20;;;3.20;;
2784;SDS011;57944;48.722;9.316;2023-01-31T11:42:07;4.23;;;2.53;;
2784;SDS011;57944;48.722;9.316;2023-01-31T11:44:56;7.53;;;3.23;;
2784;SDS011;57944;48.722;9.316;2023-01-31T11:47:33;6.50;;;3.40;;
2784;SDS011;57944;48.722;9.316;2023-01-31T11:50:18;10.00;;;2.57;;
2784;SDS011;57944;48.722;9.316;2023-01-31T11:52:57;6.00;;;2.70;;
2784;SDS011;57944;48.722;9.316;2023-01-31T11:55:34;6.80;;;3.27;;
2784;SDS011;57944;48.722;9.316;2023-01-31T11:58:08;8.30;;;2.77;;
2784;SDS011;57944;48.722;9.316;2023-01-31T12:00:51;11.00;;;2.60;;
2784;SDS011;57944;48.722;9.316;2023-01-31T12:03:25;9.30;;;3.50;;
2784;SDS011;57944;48.722;9.316;2023-01-31T12:05:59;13.00;;;2.87;;
2784;SDS011;57944;48.722;9.316;2023-01-31T12:08:34;10.20;;;3.10;;
2784;SDS011;57944;48.722;9.316;2023-01-31T12:11:18;12.43;;;3.00;;
2784;SDS011;57944;48.722;9.316;2023-01-31T12:14:00;8.77;;;3.00;;
2784;SDS011;57944;48.722;9.316;2023-01-31T12:16:41;6.70;;;2.83;;
2784;SDS011;57944;48.722;9.316;2023-01-31T12:19:18;6.70;;;3.50;;
2784;SDS011;57944;48.722;9.316;2023-01-31T12:22:07;9.77;;;3.20;;
2784;SDS011;57944;48.722;9.316;2023-01-31T12:24:53;9.43;;;3.83;;
2784;SDS011;57944;48.722;9.316;2023-01-31T12:27:45;5.53;;;3.00;;
2784;SDS011;57944;48.722;9.316;2023-01-31T12:30:33;6.90;;;2.70;;
2784;SDS011;57944;48.722;9.316;2023-01-31T12:33:30;8.77;;;3.40;;
2784;SDS011;57944;48.722;9.316;2023-01-31T12:36:32;7.17;;;2.40;;
2784;SDS011;57944;48.722;9.316;2023-01-31T12:39:27;9.53;;;2.77;;
2784;SDS011;57944;48.722;9.316;2023-01-31T12:42:29;5.50;;;2.67;;
2784;SDS011;57944;48.722;9.316;2023-01-31T12:45:25;22.83;;;2.87;;
2784;SDS011;57944;48.722;9.316;2023-01-31T12:48:31;6.03;;;2.80;;
2784;SDS011;57944;48.722;9.316;2023-01-31T12:51:38;5.13;;;3.00;;
2784;SDS011;57944;48.722;9.316;2023-01-31T12:54:20;7.33;;;2.90;;
2784;SDS011;57944;48.722;9.316;2023-01-31T12:57:16;6.60;;;2.60;;
2784;SDS011;57944;48.722;9.316;2023-01-31T13:00:14;14.93;;;2.90;;
2784;SDS011;57944;48.722;9.316;2023-01-31T13:03:24;4.27;;;2.27;;
2784;SDS011;57944;48.722;9.316;2023-01-31T13:06:13;2.60;;;1.43;;
2784;SDS011;57944;48.722;9.316;2023-01-31T13:08:52;6.70;;;2.33;;
2784;SDS011;57944;48.722;9.316;2023-01-31T13:11:34;7.00;;;2.60;;
2784;SDS011;57944;48.722;9.316;2023-01-31T13:14:16;4.23;;;2.77;;
2784;SDS011;57944;48.722;9.316;2023-01-31T13:16:52;7.77;;;2.90;;
2784;SDS011;57944;48.722;9.316;2023-01-31T13:19:28;6.23;;;2.90;;
2784;SDS011;57944;48.722;9.316;2023-01-31T13:22:07;10.23;;;2.90;;
2784;SDS011;57944;48.722;9.316;2023-01-31T13:24:46;5.33;;;2.73;;
2784;SDS011;57944;48.722;9.316;2023-01-31T13:27:26;11.57;;;3.73;;
2784;SDS011;57944;48.722;9.316;2023-01-31T13:30:13;4.90;;;2.33;;
2784;SDS011;57944;48.722;9.316;2023-01-31T13:32:51;5.73;;;2.50;;
2784;SDS011;57944;48.722;9.316;2023-01-31T13:35:27;6.33;;;3.07;;
2784;SDS011;57944;48.722;9.316;2023-01-31T13:38:05;11.83;;;3.67;;
2784;SDS011;57944;48.722;9.316;2023-01-31T13:40:45;5.50;;;3.30;;
2784;SDS011;57944;48.722;9.316;2023-01-31T13:43:20;5.23;;;3.93;;
2784;SDS011;57944;48.722;9.316;2023-01-31T13:48:41;5.13;;;3.33;;
2784;SDS011;57944;48.722;9.316;2023-01-31T13:51:20;4.10;;;2.90;;
2784;SDS011;57944;48.722;9.316;2023-01-31T13:53:56;11.73;;;3.17;;
2784;SDS011;57944;48.722;9.316;2023-01-31T13:56:34;7.50;;;2.90;;
2784;SDS011;57944;48.722;9.316;2023-01-31T13:59:08;9.90;;;3.43;;
2784;SDS011;57944;48.722;9.316;2023-01-31T14:01:45;6.80;;;2.87;;
2784;SDS011;57944;48.722;9.316;2023-01-31T14:04:21;8.63;;;3.20;;
2784;SDS011;57944;48.722;9.316;2023-01-31T14:06:57;6.37;;;3.50;;
2784;SDS011;57944;48.722;9.316;2023-01-31T14:22:33;9.37;;;3.47;;
2784;SDS011;57944;48.722;9.316;2023-01-31T14:25:13;8.83;;;3.90;;
2784;SDS011;57944;48.722;9.316;2023-01-31T14:28:00;14.10;;;3.63;;
2784;SDS011;57944;48.722;9.316;2023-01-31T14:30:36;7.70;;;3.97;;
2784;SDS011;57944;48.722;9.316;2023-01-31T14:33:16;4.83;;;3.07;;
2784;SDS011;57944;48.722;9.316;2023-01-31T14:36:06;10.30;;;3.60;;
2784;SDS011;57944;48.722;9.316;2023-01-31T14:39:09;9.20;;;4.33;;
2784;SDS011;57944;48.722;9.316;2023-01-31T14:42:26;16.97;;;4.53;;
2784;SDS011;57944;48.722;9.316;2023-01-31T14:51:50;8.83;;;4.20;;
2784;SDS011;57944;48.722;9.316;2023-01-31T14:54:50;6.33;;;3.80;;
2784;SDS011;57944;48.722;9.316;2023-01-31T14:57:40;8.80;;;4.13;;
2784;SDS011;57944;48.722;9.316;2023-01-31T15:00:16;5.70;;;3.93;;
2784;SDS011;57944;48.722;9.316;2023-01-31T15:02:52;6.53;;;4.03;;
2784;SDS011;57944;48.722;9.316;2023-01-31T15:05:38;4.43;;;2.90;;
2784;SDS011;57944;48.722;9.316;2023-01-31T15:11:13;16.97;;;3.40;;
2784;SDS011;57944;48.722;9.316;2023-01-31T15:14:26;9.93;;;4.10;;
2784;SDS011;57944;48.722;9.316;2023-01-31T15:17:05;8.00;;;3.90;;
2784;SDS011;57944;48.722;9.316;2023-01-31T15:20:02;8.97;;;4.20;;
2784;SDS011;57944;48.722;9.316;2023-01-31T15:22:52;9.27;;;3.43;;
2784;SDS011;57944;48.722;9.316;2023-01-31T15:25:41;12.03;;;4.10;;
2784;SDS011;57944;48.722;9.316;2023-01-31T15:28:15;11.13;;;3.90;;
2784;SDS011;57944;48.722;9.316;2023-01-31T15:30:49;6.00;;;3.70;;
2784;SDS011;57944;48.722;9.316;2023-01-31T15:33:27;3.60;;;2.73;;
2784;SDS011;57944;48.722;9.316;2023-01-31T15:36:03;10.23;;;4.00;;
2784;SDS011;57944;48.722;9.316;2023-01-31T15:38:46;6.67;;;2.80;;
2784;SDS011;57944;48.722;9.316;2023-01-31T15:41:25;10.17;;;4.30;;
2784;SDS011;57944;48.722;9.316;2023-01-31T15:44:10;7.47;;;3.97;;
2784;SDS011;57944;48.722;9.316;2023-01-31T15:46:45;8.70;;;3.80;;
2784;SDS011;57944;48.722;9.316;2023-01-31T15:49:22;6.97;;;4.20;;
2784;SDS011;57944;48.722;9.316;2023-01-31T15:52:12;11.10;;;4.10;;
2784;SDS011;57944;48.722;9.316;2023-01-31T15:54:52;9.63;;;3.00;;
2784;SDS011;57944;48.722;9.316;2023-01-31T15:57:27;7.43;;;4.23;;
2784;SDS011;57944;48.722;9.316;2023-01-31T16:00:05;7.87;;;4.07;;
2784;SDS011;57944;48.722;9.316;2023-01-31T16:02:45;10.53;;;3.47;;
2784;SDS011;57944;48.722;9.316;2023-01-31T16:05:25;10.20;;;4.47;;
2784;SDS011;57944;48.722;9.316;2023-01-31T16:07:59;11.10;;;5.87;;
2784;SDS011;57944;48.722;9.316;2023-01-31T16:10:32;8.10;;;3.90;;
2784;SDS011;57944;48.722;9.316;2023-01-31T16:13:06;11.20;;;4.33;;
2784;SDS011;57944;48.722;9.316;2023-01-31T16:15:37;6.43;;;4.13;;
2784;SDS011;57944;48.722;9.316;2023-01-31T16:18:09;9.03;;;3.50;;
2784;SDS011;57944;48.722;9.316;2023-01-31T16:20:42;9.10;;;3.97;;